sensor_id;sensor_type;location;lat;lon;timestamp;pressure;altitude;pressure_sealevel;temperature;humidity
77159;BME280;66129;45.890;13.714;2023-10-19T00:00:37;100477.63;;;12.54;100.00
77159;BME280;66129;45.890;13.714;2023-10-19T00:03:06;100469.91;;;12.54;100.00
77159;BME280;66129;45.890;13.714;2023-10-19T00:05:35;100467.31;;;12.51;100.00
77159;BME280;66129;45.890;13.714;2023-10-19T00:08:03;100469.06;;;12.55;100.00
77159;BME280;66129;45.890;13.714;2023-10-19T00:10:53;100473.34;;;12.53;100.00
77159;BME280;66129;45.890;13.714;2023-10-19T00:13:33;100476.75;;;12.54;100.00
77159;BME280;66129;45.890;13.714;2023-10-19T00:16:01;100476.72;;;12.51;100.00
77159;BME280;66129;45.890;13.714;2023-10-19T00:18:35;100476.72;;;12.51;100.00
77159;BME280;66129;45.890;13.714;2023-10-19T00:21:01;100467.31;;;12.53;100.00
77159;BME280;66129;45.890;13.714;2023-10-19T00:23:46;100463.03;;;12.55;100.00
77159;BME280;66129;45.890;13.714;2023-10-19T00:26:16;100458.75;;;12.54;100.00
77159;BME280;66129;45.890;13.714;2023-10-19T00:28:48;100463.94;;;12.58;100.00
77159;BME280;66129;45.890;13.714;2023-10-19T00:31:18;100457.06;;;12.57;100.00
77159;BME280;66129;45.890;13.714;2023-10-19T00:33:45;100451.88;;;12.51;100.00
77159;BME280;66129;45.890;13.714;2023-10-19T00:39:58;100436.50;;;12.60;100.00
77159;BME280;66129;45.890;13.714;2023-10-19T00:42:39;100427.09;;;12.62;100.00
77159;BME280;66129;45.890;13.714;2023-10-19T00:45:11;100415.09;;;12.60;100.00
77159;BME280;66129;45.890;13.714;2023-10-19T00:47:38;100400.50;;;12.63;100.00
77159;BME280;66129;45.890;13.714;2023-10-19T00:50:08;100392.81;;;12.65;100.00
77159;BME280;66129;45.890;13.714;2023-10-19T00:52:42;100393.72;;;12.74;100.00
77159;BME280;66129;45.890;13.714;2023-10-19T00:55:18;100371.38;;;12.64;100.00
77159;BME280;66129;45.890;13.714;2023-10-19T00:57:48;100371.38;;;12.63;100.00
77159;BME280;66129;45.890;13.714;2023-10-19T01:00:14;100376.56;;;12.73;100.00
77159;BME280;66129;45.890;13.714;2023-10-19T01:03:00;100374.00;;;12.75;100.00
77159;BME280;66129;45.890;13.714;2023-10-19T01:05:28;100354.25;;;12.65;100.00
77159;BME280;66129;45.890;13.714;2023-10-19T01:08:03;100369.75;;;12.74;100.00
77159;BME280;66129;45.890;13.714;2023-10-19T01:10:47;100361.16;;;12.73;100.00
77159;BME280;66129;45.890;13.714;2023-10-19T01:13:17;100354.31;;;12.75;100.00
77159;BME280;66129;45.890;13.714;2023-10-19T01:15:42;100356.00;;;12.78;100.00
77159;BME280;66129;45.890;13.714;2023-10-19T01:18:08;100357.75;;;12.82;100.00
77159;BME280;66129;45.890;13.714;2023-10-19T01:20:38;100368.00;;;12.71;100.00
77159;BME280;66129;45.890;13.714;2023-10-19T01:23:16;100372.31;;;12.78;100.00
77159;BME280;66129;45.890;13.714;2023-10-19T01:25:55;100361.16;;;12.81;100.00
77159;BME280;66129;45.890;13.714;2023-10-19T01:28:28;100368.91;;;12.79;100.00
77159;BME280;66129;45.890;13.714;2023-10-19T01:31:11;100351.72;;;12.74;100.00
77159;BME280;66129;45.890;13.714;2023-10-19T01:33:41;100348.28;;;12.78;100.00
77159;BME280;66129;45.890;13.714;2023-10-19T01:36:08;100326.06;;;12.84;100.00
77159;BME280;66129;45.890;13.714;2023-10-19T01:38:38;100342.41;;;12.98;100.00
77159;BME280;66129;45.890;13.714;2023-10-19T01:41:05;100337.22;;;12.89;100.00
77159;BME280;66129;45.890;13.714;2023-10-19T01:43:51;100345.75;;;12.84;100.00
77159;BME280;66129;45.890;13.714;2023-10-19T01:46:22;100346.63;;;12.86;100.00
77159;BME280;66129;45.890;13.714;2023-10-19T01:48:53;100331.16;;;12.78;100.00
77159;BME280;66129;45.890;13.714;2023-10-19T01:51:25;100315.75;;;12.83;100.00
77159;BME280;66129;45.890;13.714;2023-10-19T01:53:52;100287.50;;;12.93;100.00
77159;BME280;66129;45.890;13.714;2023-10-19T01:56:20;100308.09;;;12.96;100.00
77159;BME280;66129;45.890;13.714;2023-10-19T01:58:47;100313.19;;;12.87;100.00
77159;BME280;66129;45.890;13.714;2023-10-19T02:01:14;100326.09;;;12.92;100.00
77159;BME280;66129;45.890;13.714;2023-10-19T02:03:49;100318.34;;;12.84;100.00
77159;BME280;66129;45.890;13.714;2023-10-19T02:06:20;100325.22;;;12.88;100.00
77159;BME280;66129;45.890;13.714;2023-10-19T02:08:51;100314.03;;;12.80;100.00
77159;BME280;66129;45.890;13.714;2023-10-19T02:11:24;100320.88;;;12.78;100.00
77159;BME280;66129;45.890;13.714;2023-10-19T02:13:53;100316.59;;;12.77;100.00
77159;BME280;66129;45.890;13.714;2023-10-19T02:16:20;100308.00;;;12.75;100.00
77159;BME280;66129;45.890;13.714;2023-10-19T02:18:47;100297.72;;;12.72;100.00
77159;BME280;66129;45.890;13.714;2023-10-19T02:21:13;100290.00;;;12.75;100.00
77159;BME280;66129;45.890;13.714;2023-10-19T02:23:39;100297.78;;;12.87;100.00
77159;BME280;66129;45.890;13.714;2023-10-19T02:26:07;100276.31;;;12.84;100.00
77159;BME280;66129;45.890;13.714;2023-10-19T02:28:33;100271.16;;;12.84;100.00
77159;BME280;66129;45.890;13.714;2023-10-19T02:31:03;100262.66;;;12.94;100.00
77159;BME280;66129;45.890;13.714;2023-10-19T02:33:51;100248.91;;;12.96;100.00
77159;BME280;66129;45.890;13.714;2023-10-19T02:38:59;100251.50;;;12.96;100.00
77159;BME280;66129;45.890;13.714;2023-10-19T02:41:26;100265.25;;;13.04;100.00
77159;BME280;66129;45.890;13.714;2023-10-19T02:43:54;100277.25;;;13.10;100.00
77159;BME280;66129;45.890;13.714;2023-10-19T02:46:30;100256.66;;;13.07;100.00
77159;BME280;66129;45.890;13.714;2023-10-19T02:49:03;100266.13;;;13.12;100.00
77159;BME280;66129;45.890;13.714;2023-10-19T02:51:29;100258.38;;;13.03;100.00
77159;BME280;66129;45.890;13.714;2023-10-19T02:53:56;100242.91;;;12.97;100.00
77159;BME280;66129;45.890;13.714;2023-10-19T02:56:22;100246.34;;;12.96;100.00
77159;BME280;66129;45.890;13.714;2023-10-19T02:58:49;100249.81;;;13.00;100.00
77159;BME280;66129;45.890;13.714;2023-10-19T03:01:17;100269.53;;;13.05;100.00
77159;BME280;66129;45.890;13.714;2023-10-19T03:03:47;100242.91;;;12.97;100.00
77159;BME280;66129;45.890;13.714;2023-10-19T03:06:14;100236.06;;;12.99;100.00
77159;BME280;66129;45.890;13.714;2023-10-19T03:08:40;100251.53;;;13.05;100.00
77159;BME280;66129;45.890;13.714;2023-10-19T03:11:05;100242.09;;;13.00;100.00
77159;BME280;66129;45.890;13.714;2023-10-19T03:13:32;100231.78;;;12.97;100.00
77159;BME280;66129;45.890;13.714;2023-10-19T03:15:59;100241.22;;;12.99;100.00
77159;BME280;66129;45.890;13.714;2023-10-19T03:18:26;100254.97;;;13.03;100.00
77159;BME280;66129;45.890;13.714;2023-10-19T03:20:53;100244.66;;;13.03;100.00
77159;BME280;66129;45.890;13.714;2023-10-19T03:23:19;100227.50;;;12.99;100.00
77159;BME280;66129;45.890;13.714;2023-10-19T03:25:46;100236.94;;;13.00;100.00
77159;BME280;66129;45.890;13.714;2023-10-19T03:28:22;100230.91;;;12.99;100.00
77159;BME280;66129;45.890;13.714;2023-10-19T03:30:51;100216.34;;;12.98;100.00
77159;BME280;66129;45.890;13.714;2023-10-19T03:33:16;100224.09;;;13.03;100.00
77159;BME280;66129;45.890;13.714;2023-10-19T03:35:43;100218.09;;;13.11;100.00
77159;BME280;66129;45.890;13.714;2023-10-19T03:38:09;100206.91;;;13.06;100.00
77159;BME280;66129;45.890;13.714;2023-10-19T03:40:42;100198.34;;;13.04;100.00
77159;BME280;66129;45.890;13.714;2023-10-19T03:43:16;100184.59;;;12.96;100.00
77159;BME280;66129;45.890;13.714;2023-10-19T03:45:44;100192.31;;;13.07;100.00
77159;BME280;66129;45.890;13.714;2023-10-19T03:48:20;100185.47;;;13.09;100.00
77159;BME280;66129;45.890;13.714;2023-10-19T03:50:52;100188.03;;;13.09;100.00
77159;BME280;66129;45.890;13.714;2023-10-19T03:53:22;100178.59;;;13.08;100.00
77159;BME280;66129;45.890;13.714;2023-10-19T03:55:49;100170.91;;;13.03;100.00
77159;BME280;66129;45.890;13.714;2023-10-19T03:58:18;100174.34;;;13.11;100.00
77159;BME280;66129;45.890;13.714;2023-10-19T04:00:46;100178.59;;;13.08;100.00
77159;BME280;66129;45.890;13.714;2023-10-19T04:03:14;100162.31;;;12.97;100.00
77159;BME280;66129;45.890;13.714;2023-10-19T04:05:39;100176.06;;;12.99;100.00
77159;BME280;66129;45.890;13.714;2023-10-19T04:08:06;100182.91;;;13.04;100.00
77159;BME280;66129;45.890;13.714;2023-10-19T04:10:46;100168.34;;;12.99;100.00
77159;BME280;66129;45.890;13.714;2023-10-19T04:13:31;100157.19;;;12.97;100.00
77159;BME280;66129;45.890;13.714;2023-10-19T04:15:57;100156.31;;;13.02;100.00
77159;BME280;66129;45.890;13.714;2023-10-19T04:18:22;100156.31;;;13.10;100.00
77159;BME280;66129;45.890;13.714;2023-10-19T04:20:51;100145.16;;;13.08;100.00
77159;BME280;66129;45.890;13.714;2023-10-19T04:23:21;100134.03;;;13.07;100.00
77159;BME280;66129;45.890;13.714;2023-10-19T04:25:47;100116.00;;;13.04;100.00
77159;BME280;66129;45.890;13.714;2023-10-19T04:28:13;100121.13;;;13.09;100.00
77159;BME280;66129;45.890;13.714;2023-10-19T04:30:45;100111.69;;;13.11;100.00
77159;BME280;66129;45.890;13.714;2023-10-19T04:33:13;100117.69;;;13.07;100.00
77159;BME280;66129;45.890;13.714;2023-10-19T04:35:41;100122.88;;;13.11;100.00
77159;BME280;66129;45.890;13.714;2023-10-19T04:38:07;100112.56;;;13.02;100.00
77159;BME280;66129;45.890;13.714;2023-10-19T04:40:32;100109.97;;;13.19;100.00
77159;BME280;66129;45.890;13.714;2023-10-19T04:42:59;100101.44;;;13.15;100.00
77159;BME280;66129;45.890;13.714;2023-10-19T04:45:27;100116.00;;;13.21;100.00
77159;BME280;66129;45.890;13.714;2023-10-19T04:47:52;100099.72;;;13.14;100.00
77159;BME280;66129;45.890;13.714;2023-10-19T04:50:18;100103.97;;;13.21;100.00
77159;BME280;66129;45.890;13.714;2023-10-19T04:52:44;100102.25;;;13.22;100.00
77159;BME280;66129;45.890;13.714;2023-10-19T04:55:10;100092.00;;;13.14;100.00
77159;BME280;66129;45.890;13.714;2023-10-19T04:57:36;100087.69;;;13.09;100.00
77159;BME280;66129;45.890;13.714;2023-10-19T05:00:02;100101.41;;;13.14;100.00
77159;BME280;66129;45.890;13.714;2023-10-19T05:02:28;100087.69;;;13.06;100.00
77159;BME280;66129;45.890;13.714;2023-10-19T05:04:54;100092.84;;;13.10;100.00
77159;BME280;66129;45.890;13.714;2023-10-19T05:07:20;100106.56;;;13.18;100.00
77159;BME280;66129;45.890;13.714;2023-10-19T05:09:46;100094.53;;;13.22;100.00
77159;BME280;66129;45.890;13.714;2023-10-19T05:12:13;100080.81;;;13.14;100.00
77159;BME280;66129;45.890;13.714;2023-10-19T05:14:40;100080.81;;;13.21;100.00
77159;BME280;66129;45.890;13.714;2023-10-19T05:17:07;100085.94;;;13.39;100.00
77159;BME280;66129;45.890;13.714;2023-10-19T05:19:34;100071.34;;;13.32;100.00
77159;BME280;66129;45.890;13.714;2023-10-19T05:22:05;100067.91;;;13.30;100.00
77159;BME280;66129;45.890;13.714;2023-10-19T05:24:31;100065.34;;;13.30;100.00
77159;BME280;66129;45.890;13.714;2023-10-19T05:26:58;100081.63;;;13.36;100.00
77159;BME280;66129;45.890;13.714;2023-10-19T05:29:23;100085.09;;;13.32;100.00
77159;BME280;66129;45.890;13.714;2023-10-19T05:31:50;100072.22;;;13.25;100.00
77159;BME280;66129;45.890;13.714;2023-10-19T05:34:22;100075.66;;;13.32;100.00
77159;BME280;66129;45.890;13.714;2023-10-19T05:36:48;100078.22;;;13.29;100.00
77159;BME280;66129;45.890;13.714;2023-10-19T05:39:17;100073.91;;;13.32;100.00
77159;BME280;66129;45.890;13.714;2023-10-19T05:41:42;100082.50;;;13.34;100.00
77159;BME280;66129;45.890;13.714;2023-10-19T05:44:08;100081.63;;;13.35;100.00
77159;BME280;66129;45.890;13.714;2023-10-19T05:46:34;100073.06;;;13.39;100.00
77159;BME280;66129;45.890;13.714;2023-10-19T05:48:59;100080.78;;;13.39;100.00
77159;BME280;66129;45.890;13.714;2023-10-19T05:51:26;100085.94;;;13.32;100.00
77159;BME280;66129;45.890;13.714;2023-10-19T05:53:52;100074.81;;;13.24;100.00
77159;BME280;66129;45.890;13.714;2023-10-19T05:56:18;100088.50;;;13.27;100.00
77159;BME280;66129;45.890;13.714;2023-10-19T05:58:46;100085.94;;;13.30;100.00
77159;BME280;66129;45.890;13.714;2023-10-19T06:01:16;100075.66;;;13.29;100.00
77159;BME280;66129;45.890;13.714;2023-10-19T06:03:42;100079.06;;;13.38;100.00
77159;BME280;66129;45.890;13.714;2023-10-19T06:06:08;100071.31;;;13.36;100.00
77159;BME280;66129;45.890;13.714;2023-10-19T06:08:33;100081.63;;;13.36;100.00
77159;BME280;66129;45.890;13.714;2023-10-19T06:10:59;100074.78;;;13.34;100.00
77159;BME280;66129;45.890;13.714;2023-10-19T06:13:26;100068.75;;;13.42;100.00
77159;BME280;66129;45.890;13.714;2023-10-19T06:15:51;100073.00;;;13.58;100.00
77159;BME280;66129;45.890;13.714;2023-10-19T06:18:17;100081.56;;;13.56;100.00
77159;BME280;66129;45.890;13.714;2023-10-19T06:20:45;100085.88;;;13.61;100.00
77159;BME280;66129;45.890;13.714;2023-10-19T06:23:11;100073.88;;;13.51;100.00
77159;BME280;66129;45.890;13.714;2023-10-19T06:25:37;100075.53;;;13.66;100.00
77159;BME280;66129;45.890;13.714;2023-10-19T06:28:05;100071.28;;;13.57;100.00
77159;BME280;66129;45.890;13.714;2023-10-19T06:30:31;100072.97;;;13.63;100.00
77159;BME280;66129;45.890;13.714;2023-10-19T06:33:06;100053.28;;;13.48;100.00
77159;BME280;66129;45.890;13.714;2023-10-19T06:35:33;100046.44;;;13.43;100.00
77159;BME280;66129;45.890;13.714;2023-10-19T06:38:00;100057.59;;;13.45;100.00
77159;BME280;66129;45.890;13.714;2023-10-19T06:40:27;100042.13;;;13.43;100.00
77159;BME280;66129;45.890;13.714;2023-10-19T06:42:56;100060.09;;;13.61;100.00
77159;BME280;66129;45.890;13.714;2023-10-19T06:45:21;100048.94;;;13.58;100.00
77159;BME280;66129;45.890;13.714;2023-10-19T06:47:49;100064.38;;;13.64;100.00
77159;BME280;66129;45.890;13.714;2023-10-19T06:50:19;100048.94;;;13.61;100.00
77159;BME280;66129;45.890;13.714;2023-10-19T06:52:45;100058.34;;;13.71;100.00
77159;BME280;66129;45.890;13.714;2023-10-19T06:55:15;100038.66;;;13.59;100.00
77159;BME280;66129;45.890;13.714;2023-10-19T06:57:54;100061.75;;;13.76;100.00
77159;BME280;66129;45.890;13.714;2023-10-19T07:00:22;100061.72;;;13.86;100.00
77159;BME280;66129;45.890;13.714;2023-10-19T07:02:49;100035.09;;;13.83;100.00
77159;BME280;66129;45.890;13.714;2023-10-19T07:05:19;100053.88;;;14.04;100.00
77159;BME280;66129;45.890;13.714;2023-10-19T07:07:51;100067.66;;;13.94;100.00
77159;BME280;66129;45.890;13.714;2023-10-19T07:10:32;100034.28;;;13.70;100.00
77159;BME280;66129;45.890;13.714;2023-10-19T07:12:59;100069.41;;;13.88;100.00
77159;BME280;66129;45.890;13.714;2023-10-19T07:15:25;100057.44;;;13.82;100.00
77159;BME280;66129;45.890;13.714;2023-10-19T07:17:52;100056.56;;;13.80;100.00
77159;BME280;66129;45.890;13.714;2023-10-19T07:20:19;100041.97;;;13.82;100.00
77159;BME280;66129;45.890;13.714;2023-10-19T07:22:54;100035.94;;;13.82;100.00
77159;BME280;66129;45.890;13.714;2023-10-19T07:25:21;100043.66;;;13.88;100.00
77159;BME280;66129;45.890;13.714;2023-10-19T07:27:48;100038.50;;;13.85;100.00
77159;BME280;66129;45.890;13.714;2023-10-19T07:30:15;100047.09;;;13.88;100.00
77159;BME280;66129;45.890;13.714;2023-10-19T07:32:46;100039.38;;;13.87;100.00
77159;BME280;66129;45.890;13.714;2023-10-19T07:35:11;100036.81;;;13.85;100.00
77159;BME280;66129;45.890;13.714;2023-10-19T07:37:37;100041.09;;;13.86;100.00
77159;BME280;66129;45.890;13.714;2023-10-19T07:40:04;100036.78;;;13.87;100.00
77159;BME280;66129;45.890;13.714;2023-10-19T07:42:30;100038.50;;;13.88;100.00
77159;BME280;66129;45.890;13.714;2023-10-19T07:44:58;100034.22;;;13.85;100.00
77159;BME280;66129;45.890;13.714;2023-10-19T07:47:24;100047.03;;;13.99;100.00
77159;BME280;66129;45.890;13.714;2023-10-19T07:49:50;100034.97;;;14.05;100.00
77159;BME280;66129;45.890;13.714;2023-10-19T07:52:17;100036.69;;;14.08;100.00
77159;BME280;66129;45.890;13.714;2023-10-19T07:54:43;100020.38;;;14.03;100.00
77159;BME280;66129;45.890;13.714;2023-10-19T07:57:09;100027.19;;;14.11;100.00
77159;BME280;66129;45.890;13.714;2023-10-19T07:59:37;100025.50;;;14.13;100.00
77159;BME280;66129;45.890;13.714;2023-10-19T08:02:03;100032.34;;;14.20;100.00
77159;BME280;66129;45.890;13.714;2023-10-19T08:04:30;100039.19;;;14.20;100.00
77159;BME280;66129;45.890;13.714;2023-10-19T08:06:59;100019.47;;;14.10;100.00
77159;BME280;66129;45.890;13.714;2023-10-19T08:09:25;100040.06;;;14.19;100.00
77159;BME280;66129;45.890;13.714;2023-10-19T08:12:00;100041.78;;;14.20;100.00
77159;BME280;66129;45.890;13.714;2023-10-19T08:14:34;100005.72;;;14.17;100.00
77159;BME280;66129;45.890;13.714;2023-10-19T08:17:00;100015.06;;;14.31;100.00
77159;BME280;66129;45.890;13.714;2023-10-19T08:19:27;100023.63;;;14.36;100.00
77159;BME280;66129;45.890;13.714;2023-10-19T08:21:53;100018.47;;;14.35;100.00
77159;BME280;66129;45.890;13.714;2023-10-19T08:24:18;100014.19;;;14.34;100.00
77159;BME280;66129;45.890;13.714;2023-10-19T08:26:46;100026.19;;;14.38;100.00
77159;BME280;66129;45.890;13.714;2023-10-19T08:29:12;100003.88;;;14.34;100.00
77159;BME280;66129;45.890;13.714;2023-10-19T08:31:42;100003.81;;;14.40;100.00
77159;BME280;66129;45.890;13.714;2023-10-19T08:34:08;99986.59;;;14.42;100.00
77159;BME280;66129;45.890;13.714;2023-10-19T08:36:39;99976.28;;;14.42;100.00
77159;BME280;66129;45.890;13.714;2023-10-19T08:39:06;99997.69;;;14.52;100.00
77159;BME280;66129;45.890;13.714;2023-10-19T08:41:35;99997.00;;;14.33;100.00
77159;BME280;66129;45.890;13.714;2023-10-19T08:44:04;99991.81;;;14.37;100.00
77159;BME280;66129;45.890;13.714;2023-10-19T08:46:42;99984.94;;;14.36;100.00
77159;BME280;66129;45.890;13.714;2023-10-19T08:49:10;99983.19;;;14.40;100.00
77159;BME280;66129;45.890;13.714;2023-10-19T08:51:38;99970.28;;;14.41;100.00
77159;BME280;66129;45.890;13.714;2023-10-19T08:54:05;99981.41;;;14.47;100.00
77159;BME280;66129;45.890;13.714;2023-10-19T08:56:31;99990.81;;;14.54;100.00
77159;BME280;66129;45.890;13.714;2023-10-19T08:59:01;99995.13;;;14.52;100.00
77159;BME280;66129;45.890;13.714;2023-10-19T09:01:28;99974.56;;;14.45;100.00
77159;BME280;66129;45.890;13.714;2023-10-19T09:03:57;99969.38;;;14.48;100.00
77159;BME280;66129;45.890;13.714;2023-10-19T09:06:22;99990.84;;;14.50;100.00
77159;BME280;66129;45.890;13.714;2023-10-19T09:08:48;99985.66;;;14.53;100.00
77159;BME280;66129;45.890;13.714;2023-10-19T09:11:15;99986.50;;;14.53;100.00
77159;BME280;66129;45.890;13.714;2023-10-19T09:13:47;99988.13;;;14.66;100.00
77159;BME280;66129;45.890;13.714;2023-10-19T09:16:20;99982.16;;;14.61;100.00
77159;BME280;66129;45.890;13.714;2023-10-19T09:18:46;99970.94;;;14.65;100.00
77159;BME280;66129;45.890;13.714;2023-10-19T09:21:16;99978.66;;;14.68;100.00
77159;BME280;66129;45.890;13.714;2023-10-19T09:23:56;99972.56;;;14.74;100.00
77159;BME280;66129;45.890;13.714;2023-10-19T09:26:22;99980.22;;;14.83;100.00
77159;BME280;66129;45.890;13.714;2023-10-19T09:28:50;99962.13;;;14.84;100.00
77159;BME280;66129;45.890;13.714;2023-10-19T09:31:17;99974.03;;;14.99;100.00
77159;BME280;66129;45.890;13.714;2023-10-19T09:33:45;99968.00;;;14.97;100.00
77159;BME280;66129;45.890;13.714;2023-10-19T09:36:12;99974.78;;;15.05;100.00
77159;BME280;66129;45.890;13.714;2023-10-19T09:38:50;99980.72;;;15.15;100.00
77159;BME280;66129;45.890;13.714;2023-10-19T09:41:23;99979.94;;;15.10;100.00
77159;BME280;66129;45.890;13.714;2023-10-19T09:44:01;99970.41;;;15.13;100.00
77159;BME280;66129;45.890;13.714;2023-10-19T09:46:32;99961.75;;;15.17;100.00
77159;BME280;66129;45.890;13.714;2023-10-19T09:49:02;99963.47;;;15.17;100.00
77159;BME280;66129;45.890;13.714;2023-10-19T09:51:28;99962.72;;;15.09;100.00
77159;BME280;66129;45.890;13.714;2023-10-19T09:56:23;99961.75;;;15.17;100.00
77159;BME280;66129;45.890;13.714;2023-10-19T09:58:54;99958.25;;;15.27;100.00
77159;BME280;66129;45.890;13.714;2023-10-19T10:01:21;99954.81;;;15.22;100.00
77159;BME280;66129;45.890;13.714;2023-10-19T10:03:53;99954.78;;;15.28;100.00
77159;BME280;66129;45.890;13.714;2023-10-19T10:08:53;99940.91;;;15.37;100.00
77159;BME280;66129;45.890;13.714;2023-10-19T10:13:47;99938.25;;;15.43;100.00
77159;BME280;66129;45.890;13.714;2023-10-19T10:16:26;99940.00;;;15.41;100.00
77159;BME280;66129;45.890;13.714;2023-10-19T10:18:56;99914.28;;;15.30;100.00
77159;BME280;66129;45.890;13.714;2023-10-19T10:21:25;99915.03;;;15.40;100.00
77159;BME280;66129;45.890;13.714;2023-10-19T10:26:22;99917.50;;;15.47;100.00
77159;BME280;66129;45.890;13.714;2023-10-19T10:29:13;99915.59;;;15.59;100.00
77159;BME280;66129;45.890;13.714;2023-10-19T10:31:47;99905.31;;;15.58;100.00
77159;BME280;66129;45.890;13.714;2023-10-19T10:37:05;99876.09;;;15.52;100.00
77159;BME280;66129;45.890;13.714;2023-10-19T10:39:34;99877.88;;;15.48;100.00
77159;BME280;66129;45.890;13.714;2023-10-19T10:42:04;99872.72;;;15.48;100.00
77159;BME280;66129;45.890;13.714;2023-10-19T10:44:43;99887.16;;;15.61;100.00
77159;BME280;66129;45.890;13.714;2023-10-19T10:47:10;99870.91;;;15.55;100.00
77159;BME280;66129;45.890;13.714;2023-10-19T10:52:34;99878.53;;;15.63;100.00
77159;BME280;66129;45.890;13.714;2023-10-19T10:55:11;99875.81;;;15.71;100.00
77159;BME280;66129;45.890;13.714;2023-10-19T10:57:37;99865.41;;;15.77;100.00
77159;BME280;66129;45.890;13.714;2023-10-19T11:00:08;99849.84;;;15.78;100.00
77159;BME280;66129;45.890;13.714;2023-10-19T11:02:45;99857.38;;;15.92;100.00
77159;BME280;66129;45.890;13.714;2023-10-19T11:05:16;99835.13;;;15.85;100.00
77159;BME280;66129;45.890;13.714;2023-10-19T11:08:05;99844.41;;;15.96;100.00
77159;BME280;66129;45.890;13.714;2023-10-19T11:10:31;99843.44;;;16.02;100.00
77159;BME280;66129;45.890;13.714;2023-10-19T11:13:04;99846.00;;;16.03;100.00
77159;BME280;66129;45.890;13.714;2023-10-19T11:15:31;99825.34;;;16.02;100.00
77159;BME280;66129;45.890;13.714;2023-10-19T11:17:58;99826.94;;;16.09;100.00
77159;BME280;66129;45.890;13.714;2023-10-19T11:20:25;99819.19;;;16.09;100.00
77159;BME280;66129;45.890;13.714;2023-10-19T11:22:53;99832.06;;;16.10;100.00
77159;BME280;66129;45.890;13.714;2023-10-19T11:25:25;99839.81;;;16.12;100.00
77159;BME280;66129;45.890;13.714;2023-10-19T11:27:55;99821.78;;;16.09;100.00
77159;BME280;66129;45.890;13.714;2023-10-19T11:30:28;99823.53;;;16.07;100.00
77159;BME280;66129;45.890;13.714;2023-10-19T11:32:55;99814.84;;;16.09;100.00
77159;BME280;66129;45.890;13.714;2023-10-19T11:35:30;99818.22;;;16.14;100.00
77159;BME280;66129;45.890;13.714;2023-10-19T11:38:00;99820.81;;;16.14;100.00
77159;BME280;66129;45.890;13.714;2023-10-19T11:40:27;99814.06;;;16.06;100.00
77159;BME280;66129;45.890;13.714;2023-10-19T11:42:53;99812.97;;;16.19;100.00
77159;BME280;66129;45.890;13.714;2023-10-19T11:45:22;99814.75;;;16.15;100.00
77159;BME280;66129;45.890;13.714;2023-10-19T11:47:51;99807.88;;;16.16;100.00
77159;BME280;66129;45.890;13.714;2023-10-19T11:50:17;99817.28;;;16.18;100.00
77159;BME280;66129;45.890;13.714;2023-10-19T11:52:45;99818.16;;;16.17;100.00
77159;BME280;66129;45.890;13.714;2023-10-19T11:55:15;99828.47;;;16.20;100.00
77159;BME280;66129;45.890;13.714;2023-10-19T11:57:43;99820.78;;;16.16;100.00
77159;BME280;66129;45.890;13.714;2023-10-19T12:00:12;99832.00;;;16.15;100.00
77159;BME280;66129;45.890;13.714;2023-10-19T12:03:01;99826.84;;;16.13;100.00
77159;BME280;66129;45.890;13.714;2023-10-19T12:05:26;99834.53;;;16.18;100.00
77159;BME280;66129;45.890;13.714;2023-10-19T12:07:52;99825.19;;;16.11;100.00
77159;BME280;66129;45.890;13.714;2023-10-19T12:10:17;99819.09;;;16.13;100.00
77159;BME280;66129;45.890;13.714;2023-10-19T12:12:47;99817.38;;;16.12;100.00
77159;BME280;66129;45.890;13.714;2023-10-19T12:15:13;99830.25;;;16.17;100.00
77159;BME280;66129;45.890;13.714;2023-10-19T12:17:38;99819.97;;;16.12;100.00
77159;BME280;66129;45.890;13.714;2023-10-19T12:20:04;99814.75;;;16.17;100.00
77159;BME280;66129;45.890;13.714;2023-10-19T12:22:32;99819.88;;;16.18;100.00
77159;BME280;66129;45.890;13.714;2023-10-19T12:25:04;99807.81;;;16.17;100.00
77159;BME280;66129;45.890;13.714;2023-10-19T12:27:30;99803.47;;;16.19;100.00
77159;BME280;66129;45.890;13.714;2023-10-19T12:29:55;99818.84;;;16.28;100.00
77159;BME280;66129;45.890;13.714;2023-10-19T12:32:24;99811.00;;;16.33;100.00
77159;BME280;66129;45.890;13.714;2023-10-19T12:34:51;99808.44;;;16.31;100.00
77159;BME280;66129;45.890;13.714;2023-10-19T12:37:23;99804.91;;;16.37;100.00
77159;BME280;66129;45.890;13.714;2023-10-19T12:39:49;99797.94;;;16.40;100.00
77159;BME280;66129;45.890;13.714;2023-10-19T12:42:16;99797.00;;;16.44;100.00
77159;BME280;66129;45.890;13.714;2023-10-19T12:44:41;99804.69;;;16.49;100.00
77159;BME280;66129;45.890;13.714;2023-10-19T12:47:07;99803.59;;;16.60;100.00
77159;BME280;66129;45.890;13.714;2023-10-19T12:49:40;99794.28;;;16.50;100.00
77159;BME280;66129;45.890;13.714;2023-10-19T12:52:09;99806.13;;;16.62;100.00
77159;BME280;66129;45.890;13.714;2023-10-19T12:54:35;99804.41;;;16.61;100.00
77159;BME280;66129;45.890;13.714;2023-10-19T12:57:02;99800.84;;;16.66;100.00
77159;BME280;66129;45.890;13.714;2023-10-19T12:59:34;99794.91;;;16.63;100.00
77159;BME280;66129;45.890;13.714;2023-10-19T13:02:02;99792.28;;;16.64;100.00
77159;BME280;66129;45.890;13.714;2023-10-19T13:04:28;99792.94;;;16.73;100.00